createdAt,value
2022-10-17T00:01:13.892Z,98805.28
2022-10-17T00:03:42.353Z,98800.97
2022-10-17T00:06:12.945Z,98804.72
2022-10-17T00:08:41.550Z,98808.41
2022-10-17T00:11:29.930Z,98813.91
2022-10-17T00:13:58.925Z,98817.41
2022-10-17T00:16:33.842Z,98816.31
2022-10-17T00:19:02.402Z,98817.41
2022-10-17T00:21:30.639Z,98828.53
2022-10-17T00:23:59.946Z,98827.25
2022-10-17T00:26:29.885Z,98817.41
2022-10-17T00:28:59.604Z,98824.53
2022-10-17T00:31:28.714Z,98829.94
2022-10-17T00:33:57.080Z,98823.59
2022-10-17T00:36:26.876Z,98822.03
2022-10-17T00:38:57.274Z,98819.94
2022-10-17T00:41:28.401Z,98830.28
2022-10-17T00:44:01.902Z,98828.41
2022-10-17T00:46:39.311Z,98830.75
2022-10-17T00:49:11.563Z,98823.44
2022-10-17T00:51:43.109Z,98834.69
2022-10-17T00:54:12.177Z,98835.06
2022-10-17T00:56:40.852Z,98841.31
2022-10-17T00:59:09.838Z,98841.50
2022-10-17T01:01:43.081Z,98830.50
2022-10-17T01:04:11.839Z,98831.88
2022-10-17T01:06:41.038Z,98832.03
2022-10-17T01:09:09.680Z,98834.50
2022-10-17T01:11:46.014Z,98837.84
2022-10-17T01:14:30.598Z,98837.22
2022-10-17T01:17:04.880Z,98847.81
2022-10-17T01:19:49.165Z,98840.69
2022-10-17T01:22:33.184Z,98834.69
2022-10-17T01:25:11.701Z,98834.00
2022-10-17T01:28:21.345Z,98836.28
2022-10-17T01:31:43.764Z,98835.78
2022-10-17T01:34:23.041Z,98836.16
2022-10-17T01:37:15.217Z,98840.84
2022-10-17T01:39:47.927Z,98843.56
2022-10-17T01:42:22.431Z,98838.75
2022-10-17T01:44:55.941Z,98837.06
2022-10-17T01:47:29.955Z,98844.47
2022-10-17T01:50:02.350Z,98838.84
2022-10-17T01:52:41.101Z,98834.84
2022-10-17T01:55:29.751Z,98831.44
2022-10-17T01:58:01.783Z,98841.63
2022-10-17T02:00:30.134Z,98844.97
2022-10-17T02:03:04.002Z,98846.16
2022-10-17T02:05:34.329Z,98848.09
2022-10-17T02:08:03.250Z,98852.22
2022-10-17T02:10:56.057Z,98856.44
2022-10-17T02:13:44.137Z,98857.94
2022-10-17T02:16:47.572Z,98865.88
2022-10-17T02:19:22.036Z,98859.97
2022-10-17T02:22:02.166Z,98871.88
2022-10-17T02:24:41.204Z,98868.34
2022-10-17T02:27:34.622Z,98870.22
2022-10-17T02:30:11.223Z,98878.50
2022-10-17T02:32:49.519Z,98876.94
2022-10-17T02:35:22.073Z,98877.31
2022-10-17T02:37:50.405Z,98880.97
2022-10-17T02:40:20.120Z,98882.13
2022-10-17T02:42:48.485Z,98879.41
2022-10-17T02:45:16.982Z,98879.19
2022-10-17T02:48:13.922Z,98885.63
2022-10-17T02:51:07.349Z,98888.91
2022-10-17T02:53:45.025Z,98881.53
2022-10-17T02:56:17.296Z,98886.13
2022-10-17T02:58:52.457Z,98894.72
2022-10-17T03:01:20.852Z,98896.13
2022-10-17T03:03:49.235Z,98897.50
2022-10-17T03:06:18.129Z,98899.41
2022-10-17T03:08:47.643Z,98904.53
2022-10-17T03:11:16.795Z,98907.25
2022-10-17T03:13:45.404Z,98901.44
2022-10-17T03:16:14.418Z,98901.19
2022-10-17T03:18:45.395Z,98903.16
2022-10-17T03:21:17.044Z,98899.69
2022-10-17T03:23:45.371Z,98903.81
2022-10-17T03:26:15.759Z,98907.06
2022-10-17T03:28:44.297Z,98904.22
2022-10-17T03:31:16.479Z,98911.88
2022-10-17T03:33:46.797Z,98904.50
2022-10-17T03:36:16.798Z,98901.47
2022-10-17T03:38:46.641Z,98908.75
2022-10-17T03:41:15.102Z,98904.00
2022-10-17T03:43:43.872Z,98911.09
2022-10-17T03:46:12.340Z,98915.34
2022-10-17T03:48:41.125Z,98915.47
2022-10-17T03:51:10.148Z,98921.75
2022-10-17T03:53:46.816Z,98909.81
2022-10-17T03:56:22.847Z,98926.78
2022-10-17T03:59:02.682Z,98916.38
2022-10-17T04:01:33.557Z,98909.91
2022-10-17T04:04:02.052Z,98924.53
2022-10-17T04:06:33.450Z,98924.69
2022-10-17T04:09:02.224Z,98916.78
2022-10-17T04:11:40.417Z,98918.38
2022-10-17T04:14:11.399Z,98926.09
2022-10-17T04:16:42.020Z,98929.41
2022-10-17T04:19:16.130Z,98914.91
2022-10-17T04:21:47.722Z,98926.72
2022-10-17T04:24:16.915Z,98930.81
2022-10-17T04:26:50.465Z,98924.97
2022-10-17T04:29:20.264Z,98932.19
2022-10-17T04:31:52.734Z,98936.50
2022-10-17T04:34:31.633Z,98933.53
2022-10-17T04:37:00.072Z,98937.84
2022-10-17T04:39:30.436Z,98947.41
2022-10-17T04:41:59.430Z,98936.97
2022-10-17T04:44:31.187Z,98940.75
2022-10-17T04:47:00.397Z,98947.69
2022-10-17T04:49:28.981Z,98947.09
2022-10-17T04:52:04.080Z,98956.66
2022-10-17T04:54:39.157Z,98961.47
2022-10-17T04:57:10.654Z,98961.75
2022-10-17T04:59:41.188Z,98957.44
2022-10-17T05:02:38.845Z,98953.16
2022-10-17T05:05:08.694Z,98966.03
2022-10-17T05:07:40.933Z,98959.00
2022-10-17T05:10:14.157Z,98970.41
2022-10-17T05:12:50.591Z,98968.59
2022-10-17T05:15:20.757Z,98976.75
2022-10-17T05:17:49.336Z,98977.91
2022-10-17T05:20:18.093Z,98980.41
2022-10-17T05:22:46.691Z,98980.72
2022-10-17T05:25:15.346Z,98970.34
2022-10-17T05:27:44.375Z,98981.78
2022-10-17T05:30:12.981Z,98989.63
2022-10-17T05:32:42.372Z,98996.59
2022-10-17T05:35:11.198Z,98995.97
2022-10-17T05:37:40.499Z,99000.41
2022-10-17T05:40:10.118Z,98992.06
2022-10-17T05:45:12.489Z,98998.84
2022-10-17T05:47:41.243Z,99000.06
2022-10-17T05:50:10.773Z,98993.22
2022-10-17T05:52:57.559Z,99012.50
2022-10-17T05:55:26.088Z,99004.09
2022-10-17T05:57:55.282Z,99012.38
2022-10-17T06:00:26.098Z,99007.47
2022-10-17T06:03:00.553Z,99005.81
2022-10-17T06:05:29.207Z,99004.16
2022-10-17T06:08:01.117Z,99009.53
2022-10-17T06:10:33.948Z,99014.75
2022-10-17T06:13:04.131Z,99010.97
2022-10-17T06:15:32.630Z,99013.28
2022-10-17T06:18:06.502Z,99009.81
2022-10-17T06:20:35.045Z,99011.72
2022-10-17T06:23:04.405Z,99014.53
2022-10-17T06:25:53.301Z,99020.94
2022-10-17T06:28:21.730Z,99018.94
2022-10-17T06:30:50.328Z,99021.03
2022-10-17T06:33:18.721Z,99019.56
2022-10-17T06:35:56.652Z,99026.31
2022-10-17T06:38:26.719Z,99025.47
2022-10-17T06:41:08.596Z,99030.88
2022-10-17T06:43:38.308Z,99023.56
2022-10-17T06:46:30.166Z,99028.56
2022-10-17T06:49:06.862Z,99029.97
2022-10-17T06:51:49.311Z,99026.09
2022-10-17T06:54:20.753Z,99016.75
2022-10-17T06:57:07.438Z,99029.50
2022-10-17T06:59:59.942Z,99030.59
2022-10-17T07:02:45.281Z,99025.81
2022-10-17T07:05:14.323Z,99035.09
2022-10-17T07:07:44.773Z,99031.88
2022-10-17T07:10:15.578Z,99035.28
2022-10-17T07:12:46.118Z,99026.81
2022-10-17T07:15:16.871Z,99022.78
2022-10-17T07:17:51.088Z,99034.25
2022-10-17T07:20:20.691Z,99032.16
2022-10-17T07:22:49.280Z,99032.56
2022-10-17T07:25:17.965Z,99028.44
2022-10-17T07:27:52.364Z,99029.38
2022-10-17T07:30:22.451Z,99028.50
2022-10-17T07:33:08.358Z,99027.84
2022-10-17T07:35:41.269Z,99031.28
2022-10-17T07:38:10.199Z,99030.31
2022-10-17T07:40:38.872Z,99029.75
2022-10-17T07:43:07.549Z,99036.50
2022-10-17T07:45:36.765Z,99032.25
2022-10-17T07:48:05.903Z,99033.44
2022-10-17T07:50:34.939Z,99040.19
2022-10-17T07:53:03.398Z,99038.44
2022-10-17T07:55:31.779Z,99025.94
2022-10-17T07:58:01.150Z,99026.03
2022-10-17T08:00:29.558Z,99016.25
2022-10-17T08:02:57.976Z,99020.13
2022-10-17T08:05:26.523Z,99028.31
2022-10-17T08:07:55.511Z,99004.44
2022-10-17T08:10:28.307Z,99003.88
2022-10-17T08:12:59.670Z,99012.09
2022-10-17T08:15:31.787Z,99026.38
2022-10-17T08:18:00.931Z,99022.72
2022-10-17T08:20:29.433Z,99009.44
2022-10-17T08:22:57.763Z,99018.72
2022-10-17T08:25:27.966Z,99016.56
2022-10-17T08:27:56.715Z,99022.22
2022-10-17T08:30:25.778Z,99018.00
2022-10-17T08:32:56.403Z,99022.84
2022-10-17T08:35:25.136Z,99018.72
2022-10-17T08:37:53.736Z,99023.03
2022-10-17T08:40:25.750Z,99015.34
2022-10-17T08:43:25.824Z,99010.00
2022-10-17T08:45:56.961Z,99004.09
2022-10-17T08:48:26.250Z,99008.31
2022-10-17T08:51:11.490Z,99001.53
2022-10-17T08:54:00.891Z,99000.63
2022-10-17T08:56:50.286Z,98997.78
2022-10-17T08:59:24.294Z,98996.38
2022-10-17T09:02:14.402Z,98990.69
2022-10-17T09:04:45.624Z,99004.25
2022-10-17T09:07:26.577Z,99007.88
2022-10-17T09:10:21.253Z,98999.63
2022-10-17T09:13:46.551Z,99006.38
2022-10-17T09:16:33.352Z,99013.22
2022-10-17T09:19:09.644Z,98999.50
2022-10-17T09:21:38.201Z,99004.84
2022-10-17T09:24:15.821Z,99006.63
2022-10-17T09:26:46.138Z,99000.94
2022-10-17T09:29:24.730Z,99007.31
2022-10-17T09:32:01.742Z,99007.84
2022-10-17T09:34:31.589Z,99007.69
2022-10-17T09:37:00.833Z,99010.31
2022-10-17T09:39:33.293Z,98994.56
2022-10-17T09:42:01.973Z,98996.41
2022-10-17T09:44:33.973Z,98993.97
2022-10-17T09:47:38.682Z,98994.47
2022-10-17T09:50:29.301Z,98979.69
2022-10-17T09:53:03.109Z,98988.22
2022-10-17T09:55:46.120Z,98990.06
2022-10-17T09:58:14.863Z,98983.88
2022-10-17T10:00:45.676Z,98972.66
2022-10-17T10:03:20.216Z,98983.63
2022-10-17T10:06:18.798Z,98972.41
2022-10-17T10:08:54.075Z,98971.59
2022-10-17T10:11:46.661Z,98966.91
2022-10-17T10:14:23.488Z,98961.50
2022-10-17T10:16:53.975Z,98962.91
2022-10-17T10:19:37.308Z,98957.00
2022-10-17T10:22:08.983Z,98962.19
2022-10-17T10:24:37.694Z,98958.34
2022-10-17T10:27:06.053Z,98950.63
2022-10-17T10:29:39.131Z,98945.16
2022-10-17T10:32:32.526Z,98947.97
2022-10-17T10:35:01.049Z,98937.66
2022-10-17T10:37:33.120Z,98935.13
2022-10-17T10:40:04.439Z,98946.03
2022-10-17T10:42:39.753Z,98935.91
2022-10-17T10:45:19.150Z,98929.59
2022-10-17T10:47:59.096Z,98926.59
2022-10-17T10:50:33.050Z,98930.13
2022-10-17T10:53:22.822Z,98919.78
2022-10-17T10:56:00.035Z,98924.44
2022-10-17T10:58:42.132Z,98910.78
2022-10-17T11:01:33.114Z,98910.47
2022-10-17T11:04:27.163Z,98907.63
2022-10-17T11:07:43.554Z,98907.28
2022-10-17T11:10:12.208Z,98897.31
2022-10-17T11:12:47.996Z,98907.88
2022-10-17T11:15:43.209Z,98903.56
2022-10-17T11:18:32.975Z,98896.97
2022-10-17T11:21:05.516Z,98891.75
2022-10-17T11:23:49.138Z,98896.25
2022-10-17T11:26:27.099Z,98894.78
2022-10-17T11:29:00.812Z,98893.28
2022-10-17T11:31:39.481Z,98885.50
2022-10-17T11:34:08.928Z,98884.41
2022-10-17T11:36:39.930Z,98875.38
2022-10-17T11:39:09.429Z,98885.81
2022-10-17T11:41:46.976Z,98873.03
2022-10-17T11:44:39.970Z,98866.41
2022-10-17T11:47:22.581Z,98872.03
2022-10-17T11:49:52.868Z,98873.19
2022-10-17T11:52:56.009Z,98870.13
2022-10-17T11:55:36.100Z,98869.50
2022-10-17T11:58:04.464Z,98865.75
2022-10-17T12:01:06.904Z,98868.56
2022-10-17T12:04:00.160Z,98856.88
2022-10-17T12:06:55.586Z,98860.69
2022-10-17T12:09:28.061Z,98854.81
2022-10-17T12:12:02.851Z,98852.94
2022-10-17T12:14:34.264Z,98856.22
2022-10-17T12:17:02.915Z,98866.78
2022-10-17T12:19:35.832Z,98866.28
2022-10-17T12:22:13.303Z,98861.66
2022-10-17T12:24:44.420Z,98863.13
2022-10-17T12:27:47.113Z,98859.72
2022-10-17T12:30:18.033Z,98852.84
2022-10-17T12:33:07.186Z,98854.25
2022-10-17T12:35:37.862Z,98850.00
2022-10-17T12:38:19.245Z,98853.53
2022-10-17T12:40:50.717Z,98854.66
2022-10-17T12:43:19.115Z,98857.38
2022-10-17T12:45:54.491Z,98853.16
2022-10-17T12:48:35.707Z,98848.06
2022-10-17T12:51:35.285Z,98844.22
2022-10-17T12:54:15.225Z,98841.13
2022-10-17T12:56:45.943Z,98839.38
2022-10-17T12:59:22.949Z,98834.94
2022-10-17T13:01:53.673Z,98834.50
2022-10-17T13:04:22.829Z,98836.44
2022-10-17T13:06:55.934Z,98835.03
2022-10-17T13:09:27.333Z,98840.66
2022-10-17T13:11:57.753Z,98837.06
2022-10-17T13:14:26.712Z,98841.75
2022-10-17T13:16:56.127Z,98842.06
2022-10-17T13:19:26.955Z,98837.91
2022-10-17T13:22:06.523Z,98841.88
2022-10-17T13:24:40.010Z,98835.09
2022-10-17T13:27:30.459Z,98834.94
2022-10-17T13:30:00.726Z,98835.66
2022-10-17T13:32:40.093Z,98836.84
2022-10-17T13:35:13.532Z,98831.19
2022-10-17T13:37:43.481Z,98847.06
2022-10-17T13:40:49.938Z,98846.13
2022-10-17T13:43:24.551Z,98846.75
2022-10-17T13:46:02.312Z,98841.47
2022-10-17T13:48:37.799Z,98852.06
2022-10-17T13:51:10.338Z,98848.81
2022-10-17T13:53:42.878Z,98846.00
2022-10-17T13:56:27.309Z,98844.09
2022-10-17T13:59:06.109Z,98839.69
2022-10-17T14:01:34.596Z,98837.09
2022-10-17T14:04:09.264Z,98842.69
2022-10-17T14:06:49.368Z,98843.28
2022-10-17T14:09:22.976Z,98840.56
2022-10-17T14:12:19.377Z,98842.53
2022-10-17T14:15:09.716Z,98848.88
2022-10-17T14:17:39.156Z,98845.25
2022-10-17T14:20:40.776Z,98846.59
2022-10-17T14:23:22.552Z,98851.81
2022-10-17T14:25:46.495Z,98854.78
2022-10-17T14:28:16.208Z,98856.38
2022-10-17T14:30:57.871Z,98860.94
2022-10-17T14:33:31.095Z,98856.50
2022-10-17T14:36:01.317Z,98858.84
2022-10-17T14:38:30.215Z,98858.84
2022-10-17T14:41:43.261Z,98863.47
2022-10-17T14:44:20.252Z,98863.28
2022-10-17T14:46:54.812Z,98864.84
2022-10-17T14:49:39.724Z,98864.06
2022-10-17T14:52:18.567Z,98861.72
2022-10-17T14:54:48.994Z,98874.16
2022-10-17T14:57:29.778Z,98868.00
2022-10-17T14:59:59.022Z,98862.91
2022-10-17T15:02:30.249Z,98873.34
2022-10-17T15:04:59.088Z,98866.47
2022-10-17T15:07:28.415Z,98873.81
2022-10-17T15:09:57.438Z,98874.69
2022-10-17T15:12:26.402Z,98875.00
2022-10-17T15:14:54.995Z,98882.66
2022-10-17T15:17:31.596Z,98880.25
2022-10-17T15:20:01.290Z,98881.97
2022-10-17T15:22:31.955Z,98882.50
2022-10-17T15:25:00.697Z,98883.97
2022-10-17T15:27:33.183Z,98890.00
2022-10-17T15:30:04.940Z,98893.78
2022-10-17T15:32:36.502Z,98891.25
2022-10-17T15:35:05.079Z,98896.13
2022-10-17T15:37:34.129Z,98896.53
2022-10-17T15:40:04.293Z,98905.56
2022-10-17T15:42:32.807Z,98894.66
2022-10-17T15:45:02.968Z,98899.91
2022-10-17T15:47:36.469Z,98900.91
2022-10-17T15:50:07.894Z,98898.00
2022-10-17T15:52:37.125Z,98908.66
2022-10-17T15:55:09.517Z,98901.25
2022-10-17T15:57:40.570Z,98911.25
2022-10-17T16:00:20.485Z,98916.13
2022-10-17T16:02:50.968Z,98925.28
2022-10-17T16:05:29.315Z,98919.34
2022-10-17T16:07:59.406Z,98931.81
2022-10-17T16:10:28.478Z,98929.38
2022-10-17T16:12:57.607Z,98938.38
2022-10-17T16:15:28.263Z,98933.31
2022-10-17T16:18:00.443Z,98936.69
2022-10-17T16:20:32.598Z,98938.66
2022-10-17T16:23:04.850Z,98948.56
2022-10-17T16:25:41.163Z,98957.09
2022-10-17T16:28:10.005Z,98962.50
2022-10-17T16:30:43.850Z,98968.81
2022-10-17T16:33:13.552Z,98962.66
2022-10-17T16:35:43.269Z,98969.88
2022-10-17T16:38:13.146Z,98974.34
2022-10-17T16:40:44.111Z,98982.59
2022-10-17T16:43:16.692Z,98985.94
2022-10-17T16:45:45.571Z,98988.19
2022-10-17T16:48:14.198Z,98984.72
2022-10-17T16:50:46.162Z,98989.81
2022-10-17T16:53:15.674Z,98981.41
2022-10-17T16:55:48.196Z,99002.19
2022-10-17T16:58:18.424Z,99006.91
2022-10-17T17:00:52.227Z,99011.78
2022-10-17T17:03:21.410Z,99009.25
2022-10-17T17:05:53.258Z,99012.81
2022-10-17T17:08:24.545Z,99018.84
2022-10-17T17:10:55.688Z,99010.00
2022-10-17T17:13:24.353Z,99016.13
2022-10-17T17:15:55.334Z,99028.59
2022-10-17T17:18:24.880Z,99008.00
2022-10-17T17:20:58.995Z,99019.91
2022-10-17T17:23:33.653Z,99023.59
2022-10-17T17:26:06.839Z,99030.47
2022-10-17T17:28:37.535Z,99019.25
2022-10-17T17:31:19.358Z,99030.00
2022-10-17T17:33:49.316Z,99045.03
2022-10-17T17:36:26.436Z,99038.88
2022-10-17T17:39:04.414Z,99043.81
2022-10-17T17:44:23.816Z,99041.34
2022-10-17T17:46:56.651Z,99038.75
2022-10-17T17:49:34.888Z,99040.25
2022-10-17T17:52:14.413Z,99031.84
2022-10-17T17:54:51.131Z,99035.47
2022-10-17T17:57:33.287Z,99042.38
2022-10-17T18:00:08.075Z,99037.13
2022-10-17T18:02:44.574Z,99045.09
2022-10-17T18:05:25.214Z,99042.75
2022-10-17T18:08:18.123Z,99048.88
2022-10-17T18:11:00.459Z,99051.31
2022-10-17T18:13:34.335Z,99049.44
2022-10-17T18:16:17.761Z,99052.44
2022-10-17T18:18:56.140Z,99054.22
2022-10-17T18:21:33.085Z,99051.13
2022-10-17T18:24:05.906Z,99046.59
2022-10-17T18:26:43.674Z,99054.38
2022-10-17T18:29:26.064Z,99054.16
2022-10-17T18:32:02.454Z,99060.91
2022-10-17T18:34:40.419Z,99064.91
2022-10-17T18:37:25.583Z,99064.75
2022-10-17T18:39:57.753Z,99056.06
2022-10-17T18:42:27.269Z,99052.78
2022-10-17T18:45:00.187Z,99054.88
2022-10-17T18:47:34.323Z,99061.78
2022-10-17T18:50:04.786Z,99052.16
2022-10-17T18:52:36.664Z,99050.16
2022-10-17T18:55:08.507Z,99057.75
2022-10-17T18:57:40.722Z,99059.00
2022-10-17T19:00:19.714Z,99053.41
2022-10-17T19:02:48.324Z,99051.22
2022-10-17T19:05:17.357Z,99059.34
2022-10-17T19:07:50.411Z,99059.28
2022-10-17T19:10:19.217Z,99053.84
2022-10-17T19:12:50.685Z,99060.22
2022-10-17T19:15:23.823Z,99060.03
2022-10-17T19:17:55.733Z,99063.44
2022-10-17T19:20:36.294Z,99066.50
2022-10-17T19:23:05.383Z,99068.94
2022-10-17T19:25:34.316Z,99072.56
2022-10-17T19:28:03.541Z,99074.53
2022-10-17T19:30:33.373Z,99078.56
2022-10-17T19:33:02.024Z,99081.88
2022-10-17T19:35:32.036Z,99088.25
2022-10-17T19:38:01.023Z,99081.53
2022-10-17T19:40:30.233Z,99084.78
2022-10-17T19:42:59.491Z,99076.31
2022-10-17T19:45:28.381Z,99079.69
2022-10-17T19:47:56.901Z,99078.97
2022-10-17T19:50:26.389Z,99083.16
2022-10-17T19:52:55.662Z,99082.91
2022-10-17T19:55:24.205Z,99079.91
2022-10-17T19:57:53.096Z,99083.22
2022-10-17T20:00:26.381Z,99078.09
2022-10-17T20:02:55.259Z,99086.47
2022-10-17T20:05:27.298Z,99083.69
2022-10-17T20:07:56.682Z,99080.03
2022-10-17T20:10:25.923Z,99084.63
2022-10-17T20:12:54.641Z,99086.84
2022-10-17T20:15:23.082Z,99081.00
2022-10-17T20:17:51.560Z,99078.75
2022-10-17T20:20:20.361Z,99084.22
2022-10-17T20:22:48.810Z,99084.59
2022-10-17T20:25:20.507Z,99085.69
2022-10-17T20:27:49.503Z,99085.66
2022-10-17T20:30:20.355Z,99075.53
2022-10-17T20:32:55.516Z,99077.16
2022-10-17T20:35:24.903Z,99076.00
2022-10-17T20:37:55.291Z,99074.88
2022-10-17T20:40:40.206Z,99076.16
2022-10-17T20:43:12.395Z,99075.41
2022-10-17T20:45:50.777Z,99069.94
2022-10-17T20:48:21.361Z,99070.56
2022-10-17T20:50:49.903Z,99074.72
2022-10-17T20:53:35.909Z,99076.81
2022-10-17T20:56:12.600Z,99079.41
2022-10-17T20:58:40.989Z,99076.63
2022-10-17T21:01:09.976Z,99076.69
2022-10-17T21:03:42.381Z,99072.50
2022-10-17T21:06:14.480Z,99068.97
2022-10-17T21:08:43.017Z,99084.06
2022-10-17T21:11:13.499Z,99076.38
2022-10-17T21:13:42.374Z,99071.03
2022-10-17T21:16:16.591Z,99076.41
2022-10-17T21:18:45.233Z,99076.66
2022-10-17T21:21:21.716Z,99079.69
2022-10-17T21:23:51.090Z,99085.38
2022-10-17T21:26:19.769Z,99088.88
2022-10-17T21:28:49.220Z,99082.00
2022-10-17T21:31:20.522Z,99081.63
2022-10-17T21:33:53.561Z,99083.97
2022-10-17T21:36:22.519Z,99083.13
2022-10-17T21:38:52.021Z,99076.88
2022-10-17T21:41:21.988Z,99081.75
2022-10-17T21:43:58.257Z,99081.38
2022-10-17T21:46:26.829Z,99083.03
2022-10-17T21:48:55.199Z,99083.59
2022-10-17T21:51:25.129Z,99092.72
2022-10-17T21:53:54.898Z,99086.50
2022-10-17T21:56:25.174Z,99087.38
2022-10-17T21:58:53.486Z,99085.06
2022-10-17T22:01:26.632Z,99083.03
2022-10-17T22:03:57.220Z,99075.75
2022-10-17T22:06:42.764Z,99081.56
2022-10-17T22:09:16.670Z,99081.44
2022-10-17T22:11:47.167Z,99077.97
2022-10-17T22:14:18.516Z,99078.91
2022-10-17T22:16:47.175Z,99074.41
2022-10-17T22:19:17.552Z,99077.03
2022-10-17T22:21:45.906Z,99072.28
2022-10-17T22:24:16.238Z,99078.78
2022-10-17T22:26:45.635Z,99082.41
2022-10-17T22:29:14.041Z,99078.91
2022-10-17T22:31:43.581Z,99074.50
2022-10-17T22:34:13.633Z,99074.66
2022-10-17T22:36:42.012Z,99068.47
2022-10-17T22:39:10.421Z,99074.56
2022-10-17T22:41:38.785Z,99077.47
2022-10-17T22:44:07.322Z,99073.38
2022-10-17T22:46:35.554Z,99076.78
2022-10-17T22:49:03.931Z,99072.50
2022-10-17T22:51:32.237Z,99075.94
2022-10-17T22:54:00.551Z,99068.13
2022-10-17T22:56:30.041Z,99069.50
2022-10-17T22:58:58.464Z,99072.25
2022-10-17T23:01:26.927Z,99082.50
2022-10-17T23:03:55.407Z,99076.50
2022-10-17T23:06:24.421Z,99073.28
2022-10-17T23:08:52.813Z,99073.72
2022-10-17T23:11:21.717Z,99078.44
2022-10-17T23:13:50.088Z,99080.56
2022-10-17T23:16:18.612Z,99071.81
2022-10-17T23:18:46.996Z,99072.38
2022-10-17T23:21:15.780Z,99068.66
2022-10-17T23:23:44.601Z,99071.88
2022-10-17T23:26:14.498Z,99072.31
2022-10-17T23:28:43.225Z,99063.97
2022-10-17T23:31:15.583Z,99068.53
2022-10-17T23:33:45.318Z,99062.88
2022-10-17T23:36:15.676Z,99066.09
2022-10-17T23:38:44.804Z,99054.94
2022-10-17T23:41:13.444Z,99064.66
2022-10-17T23:43:41.837Z,99066.25
2022-10-17T23:46:10.324Z,99063.31
2022-10-17T23:48:39.921Z,99063.69
2022-10-17T23:51:09.059Z,99065.47
2022-10-17T23:53:38.179Z,99062.81
2022-10-17T23:56:07.002Z,99062.09
2022-10-17T23:58:36.663Z,99055.31
